Terminal Aerodrome Forecast
Issued by NWS

Home | Current Version | Previous Version | Text Only | Print | Product List | Glossary On
Versions: 1 2 3 4 5 6 7 8 9 10 11 12 13 14
000
FTUS46 KSEW 192300
TAFPAE
TAF
KPAE 192321Z 2000/2024 18012KT P6SM FEW040 SCT070
     FM200500 18008KT P6SM BKN050 OVC150
     FM200800 17010KT 6SM -RA OVC050
     FM201200 16010KT 4SM -RA BR BKN020 OVC040
     FM202000 17008KT P6SM -SHRA SCT025 BKN050=

USA.gov is the U.S. government's official web portal to all federal, state and local government web resources and services.